sensor_id;sensor_type;location;lat;lon;timestamp;P1;durP1;ratioP1;P2;durP2;ratioP2
71558;SDS011;59382;43.852;25.952;2023-02-01T00:01:47;6.38;;;3.85;;
71558;SDS011;59382;43.852;25.952;2023-02-01T00:04:12;10.38;;;4.93;;
71558;SDS011;59382;43.852;25.952;2023-02-01T00:06:38;5.57;;;3.80;;
71558;SDS011;59382;43.852;25.952;2023-02-01T00:09:03;6.00;;;4.28;;
71558;SDS011;59382;43.852;25.952;2023-02-01T00:11:30;8.32;;;4.15;;
71558;SDS011;59382;43.852;25.952;2023-02-01T00:13:56;10.60;;;4.43;;
71558;SDS011;59382;43.852;25.952;2023-02-01T00:16:25;7.75;;;4.35;;
71558;SDS011;59382;43.852;25.952;2023-02-01T00:19:03;5.68;;;4.22;;
71558;SDS011;59382;43.852;25.952;2023-02-01T00:21:31;6.95;;;4.32;;
71558;SDS011;59382;43.852;25.952;2023-02-01T00:23:57;5.15;;;4.10;;
71558;SDS011;59382;43.852;25.952;2023-02-01T00:26:31;5.38;;;4.00;;
71558;SDS011;59382;43.852;25.952;2023-02-01T00:29:02;4.80;;;3.85;;
71558;SDS011;59382;43.852;25.952;2023-02-01T00:31:30;9.63;;;4.43;;
71558;SDS011;59382;43.852;25.952;2023-02-01T00:33:55;2.72;;;2.33;;
71558;SDS011;59382;43.852;25.952;2023-02-01T00:36:22;6.63;;;3.70;;
71558;SDS011;59382;43.852;25.952;2023-02-01T00:38:47;5.75;;;3.95;;
71558;SDS011;59382;43.852;25.952;2023-02-01T00:41:14;6.20;;;3.33;;
71558;SDS011;59382;43.852;25.952;2023-02-01T00:43:41;2.22;;;1.85;;
71558;SDS011;59382;43.852;25.952;2023-02-01T00:46:08;5.40;;;3.25;;
71558;SDS011;59382;43.852;25.952;2023-02-01T00:48:34;9.48;;;4.35;;
71558;SDS011;59382;43.852;25.952;2023-02-01T00:51:00;6.78;;;3.53;;
71558;SDS011;59382;43.852;25.952;2023-02-01T00:53:26;8.63;;;3.47;;
71558;SDS011;59382;43.852;25.952;2023-02-01T00:55:52;7.15;;;3.80;;
71558;SDS011;59382;43.852;25.952;2023-02-01T00:58:17;6.75;;;4.10;;
71558;SDS011;59382;43.852;25.952;2023-02-01T01:00:43;6.18;;;3.33;;
71558;SDS011;59382;43.852;25.952;2023-02-01T01:03:09;4.70;;;3.22;;
71558;SDS011;59382;43.852;25.952;2023-02-01T01:05:44;4.97;;;3.88;;
71558;SDS011;59382;43.852;25.952;2023-02-01T01:08:10;6.70;;;4.05;;
71558;SDS011;59382;43.852;25.952;2023-02-01T01:10:36;5.28;;;3.45;;
71558;SDS011;59382;43.852;25.952;2023-02-01T01:13:01;11.23;;;4.78;;
71558;SDS011;59382;43.852;25.952;2023-02-01T01:15:27;3.60;;;3.25;;
71558;SDS011;59382;43.852;25.952;2023-02-01T01:17:52;7.70;;;4.28;;
71558;SDS011;59382;43.852;25.952;2023-02-01T01:20:18;5.70;;;3.45;;
71558;SDS011;59382;43.852;25.952;2023-02-01T01:22:46;6.45;;;3.55;;
71558;SDS011;59382;43.852;25.952;2023-02-01T01:25:13;3.85;;;2.90;;
71558;SDS011;59382;43.852;25.952;2023-02-01T01:27:39;6.57;;;4.15;;
71558;SDS011;59382;43.852;25.952;2023-02-01T01:30:05;7.55;;;4.68;;
71558;SDS011;59382;43.852;25.952;2023-02-01T01:32:31;4.15;;;3.15;;
71558;SDS011;59382;43.852;25.952;2023-02-01T01:34:56;5.07;;;3.70;;
71558;SDS011;59382;43.852;25.952;2023-02-01T01:37:22;6.93;;;4.25;;
71558;SDS011;59382;43.852;25.952;2023-02-01T01:39:47;5.20;;;4.00;;
71558;SDS011;59382;43.852;25.952;2023-02-01T01:42:13;5.85;;;4.07;;
71558;SDS011;59382;43.852;25.952;2023-02-01T01:47:31;5.55;;;3.67;;
71558;SDS011;59382;43.852;25.952;2023-02-01T01:50:02;6.95;;;4.28;;
71558;SDS011;59382;43.852;25.952;2023-02-01T01:52:31;7.35;;;3.97;;
71558;SDS011;59382;43.852;25.952;2023-02-01T01:54:57;6.13;;;3.83;;
71558;SDS011;59382;43.852;25.952;2023-02-01T01:57:25;7.60;;;4.10;;
71558;SDS011;59382;43.852;25.952;2023-02-01T02:00:00;4.65;;;3.53;;
71558;SDS011;59382;43.852;25.952;2023-02-01T02:02:32;5.15;;;4.00;;
71558;SDS011;59382;43.852;25.952;2023-02-01T02:04:58;3.92;;;3.40;;
71558;SDS011;59382;43.852;25.952;2023-02-01T02:07:25;4.68;;;3.08;;
71558;SDS011;59382;43.852;25.952;2023-02-01T02:09:55;5.55;;;3.63;;
71558;SDS011;59382;43.852;25.952;2023-02-01T02:12:21;6.05;;;3.97;;
71558;SDS011;59382;43.852;25.952;2023-02-01T02:14:47;6.35;;;4.03;;
71558;SDS011;59382;43.852;25.952;2023-02-01T02:26:11;4.20;;;3.53;;
71558;SDS011;59382;43.852;25.952;2023-02-01T02:29:00;4.85;;;3.50;;
71558;SDS011;59382;43.852;25.952;2023-02-01T02:31:53;6.10;;;3.75;;
71558;SDS011;59382;43.852;25.952;2023-02-01T02:34:38;7.25;;;3.08;;
71558;SDS011;59382;43.852;25.952;2023-02-01T02:40:12;7.43;;;4.00;;
71558;SDS011;59382;43.852;25.952;2023-02-01T02:43:04;6.57;;;4.47;;
71558;SDS011;59382;43.852;25.952;2023-02-01T02:45:52;8.73;;;3.97;;
71558;SDS011;59382;43.852;25.952;2023-02-01T02:51:20;5.35;;;3.55;;
71558;SDS011;59382;43.852;25.952;2023-02-01T02:54:12;7.55;;;4.38;;
71558;SDS011;59382;43.852;25.952;2023-02-01T02:56:59;4.70;;;3.63;;
71558;SDS011;59382;43.852;25.952;2023-02-01T02:59:47;6.25;;;3.45;;
71558;SDS011;59382;43.852;25.952;2023-02-01T03:02:32;6.30;;;3.42;;
71558;SDS011;59382;43.852;25.952;2023-02-01T03:05:17;7.03;;;3.85;;
71558;SDS011;59382;43.852;25.952;2023-02-01T03:12:40;5.20;;;3.30;;
71558;SDS011;59382;43.852;25.952;2023-02-01T03:15:21;8.38;;;4.40;;
71558;SDS011;59382;43.852;25.952;2023-02-01T03:18:00;7.32;;;4.18;;
71558;SDS011;59382;43.852;25.952;2023-02-01T03:20:28;4.57;;;3.63;;
71558;SDS011;59382;43.852;25.952;2023-02-01T03:22:55;11.38;;;4.95;;
71558;SDS011;59382;43.852;25.952;2023-02-01T03:25:27;5.25;;;3.58;;
71558;SDS011;59382;43.852;25.952;2023-02-01T03:27:59;7.57;;;4.78;;
71558;SDS011;59382;43.852;25.952;2023-02-01T03:30:28;4.13;;;3.30;;
71558;SDS011;59382;43.852;25.952;2023-02-01T03:32:58;5.63;;;3.97;;
71558;SDS011;59382;43.852;25.952;2023-02-01T03:35:33;7.80;;;4.20;;
71558;SDS011;59382;43.852;25.952;2023-02-01T03:38:12;6.32;;;3.40;;
71558;SDS011;59382;43.852;25.952;2023-02-01T03:40:41;4.93;;;2.72;;
71558;SDS011;59382;43.852;25.952;2023-02-01T03:43:12;12.07;;;4.05;;
71558;SDS011;59382;43.852;25.952;2023-02-01T03:45:43;5.25;;;3.28;;
71558;SDS011;59382;43.852;25.952;2023-02-01T03:48:18;5.82;;;3.97;;
71558;SDS011;59382;43.852;25.952;2023-02-01T03:50:49;5.80;;;3.53;;
71558;SDS011;59382;43.852;25.952;2023-02-01T03:53:19;7.32;;;3.63;;
71558;SDS011;59382;43.852;25.952;2023-02-01T03:55:48;4.28;;;3.33;;
71558;SDS011;59382;43.852;25.952;2023-02-01T03:58:16;9.85;;;3.10;;
71558;SDS011;59382;43.852;25.952;2023-02-01T04:00:54;5.30;;;2.42;;
71558;SDS011;59382;43.852;25.952;2023-02-01T04:03:21;8.50;;;3.25;;
71558;SDS011;59382;43.852;25.952;2023-02-01T04:05:50;7.60;;;4.20;;
71558;SDS011;59382;43.852;25.952;2023-02-01T04:08:17;4.95;;;3.20;;
71558;SDS011;59382;43.852;25.952;2023-02-01T04:10:43;5.80;;;3.63;;
71558;SDS011;59382;43.852;25.952;2023-02-01T04:13:09;4.72;;;3.35;;
71558;SDS011;59382;43.852;25.952;2023-02-01T04:15:35;4.07;;;3.28;;
71558;SDS011;59382;43.852;25.952;2023-02-01T04:18:00;5.28;;;2.95;;
71558;SDS011;59382;43.852;25.952;2023-02-01T04:20:26;3.95;;;2.90;;
71558;SDS011;59382;43.852;25.952;2023-02-01T04:22:52;3.58;;;2.72;;
71558;SDS011;59382;43.852;25.952;2023-02-01T04:25:17;3.65;;;2.47;;
71558;SDS011;59382;43.852;25.952;2023-02-01T04:27:43;5.20;;;2.85;;
71558;SDS011;59382;43.852;25.952;2023-02-01T04:30:10;3.22;;;1.52;;
71558;SDS011;59382;43.852;25.952;2023-02-01T04:32:37;3.50;;;2.08;;
71558;SDS011;59382;43.852;25.952;2023-02-01T04:35:03;6.38;;;2.78;;
71558;SDS011;59382;43.852;25.952;2023-02-01T04:37:29;5.97;;;2.20;;
71558;SDS011;59382;43.852;25.952;2023-02-01T04:39:55;5.35;;;2.10;;
71558;SDS011;59382;43.852;25.952;2023-02-01T04:42:20;6.72;;;2.88;;
71558;SDS011;59382;43.852;25.952;2023-02-01T04:44:46;4.97;;;2.90;;
71558;SDS011;59382;43.852;25.952;2023-02-01T04:47:11;3.90;;;2.08;;
71558;SDS011;59382;43.852;25.952;2023-02-01T04:49:37;5.20;;;2.30;;
71558;SDS011;59382;43.852;25.952;2023-02-01T04:52:02;2.13;;;1.92;;
71558;SDS011;59382;43.852;25.952;2023-02-01T04:54:31;4.93;;;2.40;;
71558;SDS011;59382;43.852;25.952;2023-02-01T04:56:56;3.42;;;1.92;;
71558;SDS011;59382;43.852;25.952;2023-02-01T04:59:22;4.00;;;2.38;;
71558;SDS011;59382;43.852;25.952;2023-02-01T05:01:47;6.60;;;3.25;;
71558;SDS011;59382;43.852;25.952;2023-02-01T05:04:13;4.22;;;2.40;;
71558;SDS011;59382;43.852;25.952;2023-02-01T05:06:38;5.35;;;2.58;;
71558;SDS011;59382;43.852;25.952;2023-02-01T05:09:04;5.25;;;2.85;;
71558;SDS011;59382;43.852;25.952;2023-02-01T05:11:29;8.05;;;3.50;;
71558;SDS011;59382;43.852;25.952;2023-02-01T05:14:13;7.32;;;3.75;;
71558;SDS011;59382;43.852;25.952;2023-02-01T05:16:39;8.27;;;3.85;;
71558;SDS011;59382;43.852;25.952;2023-02-01T05:19:04;6.53;;;3.42;;
71558;SDS011;59382;43.852;25.952;2023-02-01T05:21:30;5.85;;;3.42;;
71558;SDS011;59382;43.852;25.952;2023-02-01T05:23:55;6.82;;;3.63;;
71558;SDS011;59382;43.852;25.952;2023-02-01T05:26:38;5.88;;;3.63;;
71558;SDS011;59382;43.852;25.952;2023-02-01T05:29:08;8.70;;;3.30;;
71558;SDS011;59382;43.852;25.952;2023-02-01T05:31:34;3.67;;;2.33;;
71558;SDS011;59382;43.852;25.952;2023-02-01T05:34:00;7.00;;;3.13;;
71558;SDS011;59382;43.852;25.952;2023-02-01T05:36:26;8.25;;;2.97;;
71558;SDS011;59382;43.852;25.952;2023-02-01T05:38:51;5.72;;;3.28;;
71558;SDS011;59382;43.852;25.952;2023-02-01T05:41:17;4.68;;;2.25;;
71558;SDS011;59382;43.852;25.952;2023-02-01T05:43:42;4.10;;;2.15;;
71558;SDS011;59382;43.852;25.952;2023-02-01T05:46:08;7.30;;;3.97;;
71558;SDS011;59382;43.852;25.952;2023-02-01T05:48:39;6.78;;;2.92;;
71558;SDS011;59382;43.852;25.952;2023-02-01T05:51:05;5.55;;;2.47;;
71558;SDS011;59382;43.852;25.952;2023-02-01T05:53:30;6.15;;;3.58;;
71558;SDS011;59382;43.852;25.952;2023-02-01T05:55:56;4.70;;;3.35;;
71558;SDS011;59382;43.852;25.952;2023-02-01T05:58:22;8.75;;;3.42;;
71558;SDS011;59382;43.852;25.952;2023-02-01T06:00:47;7.28;;;3.53;;
71558;SDS011;59382;43.852;25.952;2023-02-01T06:03:13;5.55;;;3.20;;
71558;SDS011;59382;43.852;25.952;2023-02-01T06:05:38;4.22;;;2.80;;
71558;SDS011;59382;43.852;25.952;2023-02-01T06:08:04;5.60;;;2.78;;
71558;SDS011;59382;43.852;25.952;2023-02-01T06:10:29;6.53;;;3.58;;
71558;SDS011;59382;43.852;25.952;2023-02-01T06:12:55;7.43;;;4.18;;
71558;SDS011;59382;43.852;25.952;2023-02-01T06:15:20;6.72;;;3.55;;
71558;SDS011;59382;43.852;25.952;2023-02-01T06:17:46;8.60;;;3.50;;
71558;SDS011;59382;43.852;25.952;2023-02-01T06:20:12;7.45;;;3.60;;
71558;SDS011;59382;43.852;25.952;2023-02-01T06:22:39;5.03;;;3.85;;
71558;SDS011;59382;43.852;25.952;2023-02-01T06:25:05;9.38;;;4.70;;
71558;SDS011;59382;43.852;25.952;2023-02-01T06:27:33;7.65;;;3.83;;
71558;SDS011;59382;43.852;25.952;2023-02-01T06:29:59;10.68;;;4.30;;
71558;SDS011;59382;43.852;25.952;2023-02-01T06:32:25;4.97;;;3.65;;
71558;SDS011;59382;43.852;25.952;2023-02-01T06:34:50;7.38;;;3.90;;
71558;SDS011;59382;43.852;25.952;2023-02-01T06:37:20;5.50;;;3.50;;
71558;SDS011;59382;43.852;25.952;2023-02-01T06:39:46;5.38;;;3.60;;
71558;SDS011;59382;43.852;25.952;2023-02-01T06:42:11;7.32;;;3.53;;
71558;SDS011;59382;43.852;25.952;2023-02-01T06:44:37;4.68;;;3.72;;
71558;SDS011;59382;43.852;25.952;2023-02-01T06:47:03;5.90;;;3.17;;
71558;SDS011;59382;43.852;25.952;2023-02-01T06:49:29;8.13;;;4.38;;
71558;SDS011;59382;43.852;25.952;2023-02-01T06:51:54;12.20;;;5.00;;
71558;SDS011;59382;43.852;25.952;2023-02-01T06:54:20;10.55;;;4.72;;
71558;SDS011;59382;43.852;25.952;2023-02-01T06:56:45;8.25;;;3.35;;
71558;SDS011;59382;43.852;25.952;2023-02-01T06:59:11;8.65;;;4.63;;
71558;SDS011;59382;43.852;25.952;2023-02-01T07:01:36;9.07;;;4.20;;
71558;SDS011;59382;43.852;25.952;2023-02-01T07:04:02;11.35;;;4.13;;
71558;SDS011;59382;43.852;25.952;2023-02-01T07:06:28;5.65;;;4.25;;
71558;SDS011;59382;43.852;25.952;2023-02-01T07:08:53;8.20;;;4.68;;
71558;SDS011;59382;43.852;25.952;2023-02-01T07:11:21;6.05;;;3.47;;
71558;SDS011;59382;43.852;25.952;2023-02-01T07:13:47;6.57;;;3.90;;
71558;SDS011;59382;43.852;25.952;2023-02-01T07:16:16;8.63;;;4.75;;
71558;SDS011;59382;43.852;25.952;2023-02-01T07:18:44;8.07;;;3.95;;
71558;SDS011;59382;43.852;25.952;2023-02-01T07:21:10;11.95;;;4.40;;
71558;SDS011;59382;43.852;25.952;2023-02-01T07:23:36;8.40;;;4.00;;
71558;SDS011;59382;43.852;25.952;2023-02-01T07:26:03;8.02;;;4.40;;
71558;SDS011;59382;43.852;25.952;2023-02-01T07:28:34;18.55;;;5.15;;
71558;SDS011;59382;43.852;25.952;2023-02-01T07:31:08;9.32;;;4.97;;
71558;SDS011;59382;43.852;25.952;2023-02-01T07:33:40;8.18;;;3.55;;
71558;SDS011;59382;43.852;25.952;2023-02-01T07:36:06;6.30;;;3.55;;
71558;SDS011;59382;43.852;25.952;2023-02-01T07:38:35;5.95;;;3.70;;
71558;SDS011;59382;43.852;25.952;2023-02-01T07:41:03;11.13;;;4.05;;
71558;SDS011;59382;43.852;25.952;2023-02-01T07:43:30;7.97;;;3.97;;
71558;SDS011;59382;43.852;25.952;2023-02-01T07:45:57;5.32;;;3.72;;
71558;SDS011;59382;43.852;25.952;2023-02-01T07:48:23;5.10;;;2.35;;
71558;SDS011;59382;43.852;25.952;2023-02-01T07:50:56;5.63;;;3.70;;
71558;SDS011;59382;43.852;25.952;2023-02-01T07:53:28;5.60;;;2.95;;
71558;SDS011;59382;43.852;25.952;2023-02-01T07:55:54;3.67;;;2.75;;
71558;SDS011;59382;43.852;25.952;2023-02-01T07:58:22;5.95;;;3.28;;
71558;SDS011;59382;43.852;25.952;2023-02-01T08:00:48;5.57;;;3.58;;
71558;SDS011;59382;43.852;25.952;2023-02-01T08:03:32;9.38;;;3.60;;
71558;SDS011;59382;43.852;25.952;2023-02-01T08:06:01;5.20;;;3.30;;
71558;SDS011;59382;43.852;25.952;2023-02-01T08:08:28;5.03;;;3.15;;
71558;SDS011;59382;43.852;25.952;2023-02-01T08:10:58;6.50;;;3.85;;
71558;SDS011;59382;43.852;25.952;2023-02-01T08:13:25;7.57;;;3.30;;
71558;SDS011;59382;43.852;25.952;2023-02-01T08:15:50;5.30;;;2.85;;
71558;SDS011;59382;43.852;25.952;2023-02-01T08:18:16;5.90;;;3.05;;
71558;SDS011;59382;43.852;25.952;2023-02-01T08:20:43;6.43;;;3.42;;
71558;SDS011;59382;43.852;25.952;2023-02-01T08:23:11;7.22;;;3.70;;
71558;SDS011;59382;43.852;25.952;2023-02-01T08:25:37;5.50;;;3.45;;
71558;SDS011;59382;43.852;25.952;2023-02-01T08:28:04;2.40;;;2.20;;
71558;SDS011;59382;43.852;25.952;2023-02-01T08:30:31;7.70;;;3.10;;
71558;SDS011;59382;43.852;25.952;2023-02-01T08:32:57;4.82;;;3.47;;
71558;SDS011;59382;43.852;25.952;2023-02-01T08:35:23;4.90;;;3.25;;
71558;SDS011;59382;43.852;25.952;2023-02-01T08:37:50;5.78;;;3.78;;
71558;SDS011;59382;43.852;25.952;2023-02-01T08:40:15;4.30;;;2.90;;
71558;SDS011;59382;43.852;25.952;2023-02-01T08:42:41;5.63;;;3.47;;
71558;SDS011;59382;43.852;25.952;2023-02-01T08:45:22;6.95;;;3.60;;
71558;SDS011;59382;43.852;25.952;2023-02-01T08:47:52;7.03;;;3.85;;
71558;SDS011;59382;43.852;25.952;2023-02-01T08:50:19;5.07;;;3.08;;
71558;SDS011;59382;43.852;25.952;2023-02-01T08:52:46;6.65;;;2.92;;
71558;SDS011;59382;43.852;25.952;2023-02-01T08:55:12;8.27;;;3.60;;
71558;SDS011;59382;43.852;25.952;2023-02-01T08:57:38;9.05;;;4.47;;
71558;SDS011;59382;43.852;25.952;2023-02-01T09:00:06;5.60;;;3.75;;
71558;SDS011;59382;43.852;25.952;2023-02-01T09:02:36;7.70;;;4.25;;
71558;SDS011;59382;43.852;25.952;2023-02-01T09:05:02;7.68;;;4.22;;
71558;SDS011;59382;43.852;25.952;2023-02-01T09:07:29;7.43;;;3.63;;
71558;SDS011;59382;43.852;25.952;2023-02-01T09:09:55;6.68;;;3.90;;
71558;SDS011;59382;43.852;25.952;2023-02-01T09:12:25;5.55;;;3.63;;
71558;SDS011;59382;43.852;25.952;2023-02-01T09:14:50;3.28;;;2.78;;
71558;SDS011;59382;43.852;25.952;2023-02-01T09:17:17;7.05;;;3.30;;
71558;SDS011;59382;43.852;25.952;2023-02-01T09:19:42;5.38;;;3.60;;
71558;SDS011;59382;43.852;25.952;2023-02-01T09:22:08;6.60;;;3.40;;
71558;SDS011;59382;43.852;25.952;2023-02-01T09:24:33;13.43;;;3.95;;
71558;SDS011;59382;43.852;25.952;2023-02-01T09:26:59;9.23;;;3.88;;
71558;SDS011;59382;43.852;25.952;2023-02-01T09:29:24;6.15;;;3.78;;
71558;SDS011;59382;43.852;25.952;2023-02-01T09:31:50;6.53;;;3.72;;
71558;SDS011;59382;43.852;25.952;2023-02-01T09:34:15;5.05;;;3.28;;
71558;SDS011;59382;43.852;25.952;2023-02-01T09:36:41;7.90;;;3.05;;
71558;SDS011;59382;43.852;25.952;2023-02-01T09:39:06;11.13;;;4.72;;
71558;SDS011;59382;43.852;25.952;2023-02-01T09:41:35;17.42;;;3.63;;
71558;SDS011;59382;43.852;25.952;2023-02-01T09:46:46;4.75;;;2.70;;
71558;SDS011;59382;43.852;25.952;2023-02-01T09:49:13;7.28;;;3.45;;
71558;SDS011;59382;43.852;25.952;2023-02-01T09:51:44;7.82;;;3.53;;
71558;SDS011;59382;43.852;25.952;2023-02-01T09:54:19;6.50;;;2.75;;
71558;SDS011;59382;43.852;25.952;2023-02-01T09:56:53;8.38;;;4.68;;
71558;SDS011;59382;43.852;25.952;2023-02-01T09:59:41;9.40;;;3.85;;
71558;SDS011;59382;43.852;25.952;2023-02-01T10:02:20;6.55;;;3.63;;
71558;SDS011;59382;43.852;25.952;2023-02-01T10:04:52;5.22;;;4.10;;
71558;SDS011;59382;43.852;25.952;2023-02-01T10:10:17;4.60;;;2.88;;
71558;SDS011;59382;43.852;25.952;2023-02-01T10:13:05;6.65;;;3.25;;
71558;SDS011;59382;43.852;25.952;2023-02-01T10:26:39;4.55;;;3.42;;
71558;SDS011;59382;43.852;25.952;2023-02-01T10:29:16;4.03;;;3.22;;
71558;SDS011;59382;43.852;25.952;2023-02-01T10:31:45;5.15;;;2.45;;
71558;SDS011;59382;43.852;25.952;2023-02-01T10:36:50;4.68;;;3.35;;
71558;SDS011;59382;43.852;25.952;2023-02-01T10:39:22;4.80;;;3.13;;
71558;SDS011;59382;43.852;25.952;2023-02-01T10:41:48;9.90;;;3.10;;
71558;SDS011;59382;43.852;25.952;2023-02-01T10:44:15;7.32;;;3.22;;
71558;SDS011;59382;43.852;25.952;2023-02-01T10:46:50;9.18;;;3.17;;
71558;SDS011;59382;43.852;25.952;2023-02-01T10:49:38;4.63;;;2.63;;
71558;SDS011;59382;43.852;25.952;2023-02-01T11:01:01;4.57;;;3.05;;
71558;SDS011;59382;43.852;25.952;2023-02-01T11:08:50;5.75;;;3.22;;
71558;SDS011;59382;43.852;25.952;2023-02-01T11:11:19;5.03;;;2.75;;
71558;SDS011;59382;43.852;25.952;2023-02-01T11:13:56;4.15;;;2.63;;
71558;SDS011;59382;43.852;25.952;2023-02-01T11:16:33;12.88;;;4.45;;
71558;SDS011;59382;43.852;25.952;2023-02-01T11:19:01;4.60;;;3.22;;
71558;SDS011;59382;43.852;25.952;2023-02-01T11:21:27;5.03;;;2.92;;
71558;SDS011;59382;43.852;25.952;2023-02-01T11:23:53;4.97;;;2.67;;
71558;SDS011;59382;43.852;25.952;2023-02-01T11:26:24;3.92;;;2.25;;
71558;SDS011;59382;43.852;25.952;2023-02-01T11:28:57;4.28;;;2.72;;
71558;SDS011;59382;43.852;25.952;2023-02-01T11:31:26;4.77;;;2.53;;
71558;SDS011;59382;43.852;25.952;2023-02-01T11:34:00;7.90;;;2.83;;
71558;SDS011;59382;43.852;25.952;2023-02-01T11:36:33;7.13;;;2.83;;
71558;SDS011;59382;43.852;25.952;2023-02-01T11:41:40;3.28;;;2.65;;
71558;SDS011;59382;43.852;25.952;2023-02-01T11:49:45;8.63;;;2.13;;
71558;SDS011;59382;43.852;25.952;2023-02-01T11:52:34;8.02;;;3.03;;
71558;SDS011;59382;43.852;25.952;2023-02-01T12:14:05;2.60;;;2.13;;
71558;SDS011;59382;43.852;25.952;2023-02-01T12:22:19;5.22;;;2.97;;
71558;SDS011;59382;43.852;25.952;2023-02-01T12:27:54;2.85;;;2.10;;
71558;SDS011;59382;43.852;25.952;2023-02-01T12:31:05;5.25;;;2.25;;
71558;SDS011;59382;43.852;25.952;2023-02-01T12:39:27;4.22;;;1.90;;
71558;SDS011;59382;43.852;25.952;2023-02-01T12:41:56;3.95;;;2.13;;
71558;SDS011;59382;43.852;25.952;2023-02-01T12:44:41;3.22;;;1.85;;
71558;SDS011;59382;43.852;25.952;2023-02-01T12:53:09;2.97;;;1.48;;
71558;SDS011;59382;43.852;25.952;2023-02-01T12:55:47;8.45;;;2.05;;
71558;SDS011;59382;43.852;25.952;2023-02-01T12:58:18;8.50;;;2.28;;
71558;SDS011;59382;43.852;25.952;2023-02-01T13:03:41;3.92;;;2.30;;
71558;SDS011;59382;43.852;25.952;2023-02-01T13:06:28;3.80;;;3.05;;
71558;SDS011;59382;43.852;25.952;2023-02-01T13:12:15;4.40;;;1.58;;
71558;SDS011;59382;43.852;25.952;2023-02-01T13:15:28;4.25;;;2.25;;
71558;SDS011;59382;43.852;25.952;2023-02-01T13:17:42;3.67;;;1.88;;
71558;SDS011;59382;43.852;25.952;2023-02-01T13:22:59;3.05;;;1.70;;
71558;SDS011;59382;43.852;25.952;2023-02-01T13:25:37;3.70;;;1.52;;
71558;SDS011;59382;43.852;25.952;2023-02-01T13:28:30;8.82;;;3.50;;
71558;SDS011;59382;43.852;25.952;2023-02-01T13:39:59;1.95;;;1.35;;
71558;SDS011;59382;43.852;25.952;2023-02-01T13:42:31;3.10;;;1.67;;
71558;SDS011;59382;43.852;25.952;2023-02-01T13:45:16;2.55;;;1.77;;
71558;SDS011;59382;43.852;25.952;2023-02-01T13:47:46;5.63;;;1.60;;
71558;SDS011;59382;43.852;25.952;2023-02-01T13:50:23;6.32;;;2.30;;
71558;SDS011;59382;43.852;25.952;2023-02-01T13:53:03;5.50;;;1.92;;
71558;SDS011;59382;43.852;25.952;2023-02-01T13:55:43;5.00;;;1.60;;
71558;SDS011;59382;43.852;25.952;2023-02-01T13:58:14;1.80;;;1.40;;
71558;SDS011;59382;43.852;25.952;2023-02-01T14:03:56;2.75;;;1.70;;
71558;SDS011;59382;43.852;25.952;2023-02-01T14:11:50;5.63;;;1.38;;
71558;SDS011;59382;43.852;25.952;2023-02-01T14:19:26;8.23;;;1.73;;
71558;SDS011;59382;43.852;25.952;2023-02-01T14:21:55;5.90;;;1.58;;
71558;SDS011;59382;43.852;25.952;2023-02-01T14:24:30;4.32;;;1.45;;
71558;SDS011;59382;43.852;25.952;2023-02-01T14:26:59;4.63;;;1.90;;
71558;SDS011;59382;43.852;25.952;2023-02-01T14:29:44;3.13;;;1.42;;
71558;SDS011;59382;43.852;25.952;2023-02-01T14:32:21;2.70;;;1.70;;
71558;SDS011;59382;43.852;25.952;2023-02-01T14:42:30;7.78;;;3.78;;
71558;SDS011;59382;43.852;25.952;2023-02-01T14:47:47;5.03;;;2.03;;
71558;SDS011;59382;43.852;25.952;2023-02-01T15:00:55;4.88;;;2.08;;
71558;SDS011;59382;43.852;25.952;2023-02-01T15:06:20;7.72;;;1.88;;
71558;SDS011;59382;43.852;25.952;2023-02-01T15:08:47;2.97;;;1.58;;
71558;SDS011;59382;43.852;25.952;2023-02-01T15:11:14;4.25;;;1.70;;
71558;SDS011;59382;43.852;25.952;2023-02-01T15:13:47;2.60;;;1.55;;
71558;SDS011;59382;43.852;25.952;2023-02-01T15:16:16;2.33;;;1.40;;
71558;SDS011;59382;43.852;25.952;2023-02-01T15:18:43;2.28;;;1.30;;
71558;SDS011;59382;43.852;25.952;2023-02-01T15:21:20;2.78;;;1.25;;
71558;SDS011;59382;43.852;25.952;2023-02-01T15:23:48;4.00;;;1.40;;
71558;SDS011;59382;43.852;25.952;2023-02-01T15:26:29;2.97;;;1.67;;
71558;SDS011;59382;43.852;25.952;2023-02-01T15:28:57;3.25;;;1.40;;
71558;SDS011;59382;43.852;25.952;2023-02-01T15:31:37;2.30;;;1.20;;
71558;SDS011;59382;43.852;25.952;2023-02-01T15:34:05;5.07;;;1.30;;
71558;SDS011;59382;43.852;25.952;2023-02-01T15:36:31;4.80;;;1.20;;
71558;SDS011;59382;43.852;25.952;2023-02-01T15:39:41;2.75;;;1.65;;
71558;SDS011;59382;43.852;25.952;2023-02-01T15:44:45;3.08;;;1.83;;
71558;SDS011;59382;43.852;25.952;2023-02-01T15:47:18;4.50;;;2.15;;
71558;SDS011;59382;43.852;25.952;2023-02-01T15:49:52;1.38;;;1.08;;
71558;SDS011;59382;43.852;25.952;2023-02-01T15:52:24;3.13;;;1.60;;
71558;SDS011;59382;43.852;25.952;2023-02-01T15:54:56;1.92;;;1.45;;
71558;SDS011;59382;43.852;25.952;2023-02-01T15:57:30;2.13;;;1.30;;
71558;SDS011;59382;43.852;25.952;2023-02-01T15:59:59;3.38;;;1.60;;
71558;SDS011;59382;43.852;25.952;2023-02-01T16:02:37;2.50;;;1.65;;
71558;SDS011;59382;43.852;25.952;2023-02-01T16:10:42;5.63;;;2.47;;
71558;SDS011;59382;43.852;25.952;2023-02-01T16:13:12;3.95;;;2.80;;
71558;SDS011;59382;43.852;25.952;2023-02-01T16:15:39;6.85;;;2.60;;
71558;SDS011;59382;43.852;25.952;2023-02-01T16:18:05;3.80;;;2.63;;
71558;SDS011;59382;43.852;25.952;2023-02-01T16:20:33;4.63;;;3.40;;
71558;SDS011;59382;43.852;25.952;2023-02-01T16:23:00;7.03;;;3.20;;
71558;SDS011;59382;43.852;25.952;2023-02-01T16:25:27;5.68;;;3.00;;
71558;SDS011;59382;43.852;25.952;2023-02-01T16:27:53;6.75;;;2.78;;
71558;SDS011;59382;43.852;25.952;2023-02-01T16:30:18;6.00;;;2.58;;
71558;SDS011;59382;43.852;25.952;2023-02-01T16:32:57;6.75;;;2.67;;
71558;SDS011;59382;43.852;25.952;2023-02-01T16:35:29;4.78;;;2.72;;
71558;SDS011;59382;43.852;25.952;2023-02-01T16:38:02;6.10;;;2.63;;
71558;SDS011;59382;43.852;25.952;2023-02-01T16:40:38;4.22;;;2.50;;
71558;SDS011;59382;43.852;25.952;2023-02-01T16:43:08;6.00;;;2.90;;
71558;SDS011;59382;43.852;25.952;2023-02-01T16:45:38;7.45;;;2.65;;
71558;SDS011;59382;43.852;25.952;2023-02-01T16:48:05;8.10;;;2.88;;
71558;SDS011;59382;43.852;25.952;2023-02-01T16:50:31;4.68;;;2.75;;
71558;SDS011;59382;43.852;25.952;2023-02-01T16:52:58;7.18;;;2.80;;
71558;SDS011;59382;43.852;25.952;2023-02-01T16:55:23;4.28;;;2.42;;
71558;SDS011;59382;43.852;25.952;2023-02-01T16:57:50;4.68;;;3.10;;
71558;SDS011;59382;43.852;25.952;2023-02-01T17:00:16;5.32;;;3.20;;
71558;SDS011;59382;43.852;25.952;2023-02-01T17:02:42;6.22;;;3.10;;
71558;SDS011;59382;43.852;25.952;2023-02-01T17:05:09;6.45;;;3.58;;
71558;SDS011;59382;43.852;25.952;2023-02-01T17:07:36;7.65;;;3.88;;
71558;SDS011;59382;43.852;25.952;2023-02-01T17:10:04;6.65;;;3.65;;
71558;SDS011;59382;43.852;25.952;2023-02-01T17:12:31;8.65;;;4.90;;
71558;SDS011;59382;43.852;25.952;2023-02-01T17:14:58;10.10;;;3.72;;
71558;SDS011;59382;43.852;25.952;2023-02-01T17:17:32;6.40;;;3.47;;
71558;SDS011;59382;43.852;25.952;2023-02-01T17:20:01;7.95;;;3.40;;
71558;SDS011;59382;43.852;25.952;2023-02-01T17:22:28;5.07;;;3.42;;
71558;SDS011;59382;43.852;25.952;2023-02-01T17:24:55;5.07;;;3.25;;
71558;SDS011;59382;43.852;25.952;2023-02-01T17:27:21;5.88;;;2.95;;
71558;SDS011;59382;43.852;25.952;2023-02-01T17:29:46;5.30;;;3.20;;
71558;SDS011;59382;43.852;25.952;2023-02-01T17:32:17;8.25;;;2.92;;
71558;SDS011;59382;43.852;25.952;2023-02-01T17:34:45;13.45;;;4.10;;
71558;SDS011;59382;43.852;25.952;2023-02-01T17:37:45;7.45;;;3.67;;